Time;durP1;ratioP1;P1;durP2;ratioP2;P2;SDS_P1;SDS_P2;PMS_P1;PMS_P2;Temp;Humidity;BMP_temperature;BMP_pressure;BME280_temperature;BME280_humidity;BME280_pressure;Samples;Min_cycle;Max_cycle;Signal;HPM_P1;HPM_P2
2022/03/15 00:00:00;;;;;;;36.8;31.8;;;;;;;8.2;100.0;102540;;;;
2022/03/15 00:01:00;;;;;;;36.8;31.8;;;;;;;8.2;100.0;102540;;;;
2022/03/15 00:02:00;;;;;;;36.8;31.8;;;;;;;8.2;100.0;102540;;;;
2022/03/15 00:03:00;;;;;;;36.8;31.8;;;;;;;8.2;100.0;102540;;;;
2022/03/15 00:04:00;;;;;;;36.8;31.8;;;;;;;8.2;100.0;102540;;;;
2022/03/15 00:05:01;;;;;;;36.8;31.8;;;;;;;8.2;100.0;102540;;;;
2022/03/15 00:06:01;;;;;;;36.8;31.8;;;;;;;8.2;100.0;102540;;;;
2022/03/15 00:07:00;;;;;;;35.3;30.8;;;;;;;8.2;100.0;102540;;;;
2022/03/15 00:08:00;;;;;;;35.3;30.8;;;;;;;8.2;100.0;102540;;;;
2022/03/15 00:09:00;;;;;;;35.3;30.8;;;;;;;8.1;100.0;102540;;;;
2022/03/15 00:10:00;;;;;;;35.3;30.8;;;;;;;8.1;100.0;102540;;;;
2022/03/15 00:11:05;;;;;;;35.3;30.8;;;;;;;8.1;100.0;102540;;;;
2022/03/15 00:12:01;;;;;;;35.3;30.8;;;;;;;8.1;100.0;102540;;;;
2022/03/15 00:13:00;;;;;;;35.3;30.8;;;;;;;8.1;100.0;102540;;;;
2022/03/15 00:14:02;;;;;;;35.3;30.8;;;;;;;8.1;100.0;102540;;;;
2022/03/15 00:15:00;;;;;;;35.3;30.8;;;;;;;8.1;100.0;102530;;;;
2022/03/15 00:16:00;;;;;;;35.3;30.8;;;;;;;8.1;100.0;102530;;;;
2022/03/15 00:17:04;;;;;;;35.3;30.8;;;;;;;8.1;100.0;102530;;;;
2022/03/15 00:18:00;;;;;;;35.3;30.8;;;;;;;8.1;100.0;102530;;;;
2022/03/15 00:19:01;;;;;;;35.3;30.8;;;;;;;8.0;100.0;102530;;;;
2022/03/15 00:20:00;;;;;;;35.3;30.8;;;;;;;8.0;100.0;102530;;;;
2022/03/15 00:21:02;;;;;;;35.3;30.8;;;;;;;8.0;100.0;102530;;;;
2022/03/15 00:22:06;;;;;;;35.3;30.8;;;;;;;8.0;100.0;102530;;;;
2022/03/15 00:23:00;;;;;;;35.3;30.8;;;;;;;8.0;100.0;102530;;;;
2022/03/15 00:24:00;;;;;;;35.3;30.8;;;;;;;8.0;100.0;102530;;;;
2022/03/15 00:25:01;;;;;;;35.3;30.8;;;;;;;7.9;100.0;102530;;;;
2022/03/15 00:26:00;;;;;;;35.3;30.8;;;;;;;7.9;100.0;102530;;;;
2022/03/15 00:27:00;;;;;;;36.9;29.8;;;;;;;8.1;100.0;102520;;;;
2022/03/15 00:28:00;;;;;;;36.9;29.8;;;;;;;8.1;100.0;102520;;;;
2022/03/15 00:29:00;;;;;;;36.9;29.8;;;;;;;8.0;100.0;102520;;;;
2022/03/15 00:30:00;;;;;;;36.9;29.8;;;;;;;8.0;100.0;102520;;;;
2022/03/15 00:31:00;;;;;;;36.9;29.8;;;;;;;8.0;100.0;102520;;;;
2022/03/15 00:32:00;;;;;;;36.9;29.8;;;;;;;8.0;100.0;102520;;;;
2022/03/15 00:33:00;;;;;;;36.9;29.8;;;;;;;8.0;100.0;102520;;;;
2022/03/15 00:34:00;;;;;;;36.9;29.8;;;;;;;8.0;100.0;102520;;;;
2022/03/15 00:35:00;;;;;;;36.9;29.8;;;;;;;8.0;100.0;102520;;;;
2022/03/15 00:36:00;;;;;;;36.9;29.8;;;;;;;8.0;100.0;102520;;;;
2022/03/15 00:37:00;;;;;;;36.9;29.8;;;;;;;7.9;100.0;102520;;;;
2022/03/15 00:38:00;;;;;;;36.9;29.8;;;;;;;7.9;100.0;102520;;;;
2022/03/15 00:39:00;;;;;;;36.9;29.8;;;;;;;7.8;100.0;102530;;;;
2022/03/15 00:40:00;;;;;;;36.9;29.8;;;;;;;7.8;100.0;102530;;;;
2022/03/15 00:41:00;;;;;;;36.9;29.8;;;;;;;7.9;100.0;102530;;;;
2022/03/15 00:42:00;;;;;;;36.9;29.8;;;;;;;7.9;100.0;102530;;;;
2022/03/15 00:43:00;;;;;;;36.9;29.8;;;;;;;7.9;100.0;102530;;;;
2022/03/15 00:44:00;;;;;;;36.9;29.8;;;;;;;7.9;100.0;102530;;;;
2022/03/15 00:45:01;;;;;;;36.9;29.8;;;;;;;7.8;100.0;102530;;;;
2022/03/15 00:46:00;;;;;;;31.1;26.5;;;;;;;7.8;100.0;102530;;;;
2022/03/15 00:47:00;;;;;;;31.1;26.5;;;;;;;7.9;100.0;102530;;;;
2022/03/15 00:48:00;;;;;;;31.1;26.5;;;;;;;7.9;100.0;102530;;;;
2022/03/15 00:49:00;;;;;;;31.1;26.5;;;;;;;7.9;100.0;102530;;;;
2022/03/15 00:50:00;;;;;;;31.1;26.5;;;;;;;7.9;100.0;102530;;;;
2022/03/15 00:51:00;;;;;;;31.1;26.5;;;;;;;7.8;100.0;102530;;;;
2022/03/15 00:52:00;;;;;;;31.1;26.5;;;;;;;7.8;100.0;102530;;;;
2022/03/15 00:53:00;;;;;;;31.1;26.5;;;;;;;7.8;100.0;102530;;;;
2022/03/15 00:54:00;;;;;;;31.1;26.5;;;;;;;7.8;100.0;102530;;;;
2022/03/15 00:55:00;;;;;;;31.1;26.5;;;;;;;7.8;100.0;102530;;;;
2022/03/15 00:56:00;;;;;;;31.1;26.5;;;;;;;7.8;100.0;102530;;;;
2022/03/15 00:57:00;;;;;;;31.1;26.5;;;;;;;7.8;100.0;102520;;;;
2022/03/15 00:58:00;;;;;;;31.1;26.5;;;;;;;7.8;100.0;102520;;;;
2022/03/15 00:59:00;;;;;;;31.1;26.5;;;;;;;7.8;100.0;102520;;;;
2022/03/15 01:00:00;;;;;;;31.1;26.5;;;;;;;7.8;100.0;102520;;;;
2022/03/15 01:01:00;;;;;;;31.1;26.5;;;;;;;7.8;100.0;102520;;;;
2022/03/15 01:02:00;;;;;;;31.1;26.5;;;;;;;7.8;100.0;102520;;;;
2022/03/15 01:03:00;;;;;;;31.1;26.5;;;;;;;7.7;100.0;102520;;;;
2022/03/15 01:04:00;;;;;;;31.1;26.5;;;;;;;7.7;100.0;102520;;;;
2022/03/15 01:05:00;;;;;;;31.1;26.5;;;;;;;7.8;100.0;102520;;;;
2022/03/15 01:06:00;;;;;;;30.3;25.7;;;;;;;7.8;100.0;102520;;;;
2022/03/15 01:07:00;;;;;;;30.3;25.7;;;;;;;7.8;100.0;102520;;;;
2022/03/15 01:08:00;;;;;;;30.3;25.7;;;;;;;7.8;100.0;102520;;;;
2022/03/15 01:09:00;;;;;;;30.3;25.7;;;;;;;7.7;100.0;102520;;;;
2022/03/15 01:10:00;;;;;;;30.3;25.7;;;;;;;7.7;100.0;102520;;;;
2022/03/15 01:11:00;;;;;;;30.3;25.7;;;;;;;7.7;100.0;102520;;;;
2022/03/15 01:12:00;;;;;;;30.3;25.7;;;;;;;7.7;100.0;102520;;;;
2022/03/15 01:13:00;;;;;;;30.3;25.7;;;;;;;7.7;100.0;102520;;;;
2022/03/15 01:14:00;;;;;;;30.3;25.7;;;;;;;7.7;100.0;102520;;;;
2022/03/15 01:15:00;;;;;;;30.3;25.7;;;;;;;7.7;100.0;102520;;;;
2022/03/15 01:16:00;;;;;;;30.3;25.7;;;;;;;7.7;100.0;102520;;;;
2022/03/15 01:17:00;;;;;;;30.3;25.7;;;;;;;7.7;100.0;102520;;;;
2022/03/15 01:18:00;;;;;;;30.3;25.7;;;;;;;7.7;100.0;102520;;;;
2022/03/15 01:19:00;;;;;;;30.3;25.7;;;;;;;7.7;100.0;102520;;;;
2022/03/15 01:20:00;;;;;;;30.3;25.7;;;;;;;7.7;100.0;102520;;;;
2022/03/15 01:21:00;;;;;;;30.3;25.7;;;;;;;7.7;100.0;102520;;;;
2022/03/15 01:22:00;;;;;;;30.3;25.7;;;;;;;7.7;100.0;102520;;;;
2022/03/15 01:23:00;;;;;;;30.3;25.7;;;;;;;7.7;100.0;102510;;;;
2022/03/15 01:24:00;;;;;;;30.3;25.7;;;;;;;7.7;100.0;102510;;;;
2022/03/15 01:25:00;;;;;;;30.3;25.7;;;;;;;7.6;100.0;102510;;;;
2022/03/15 01:26:02;;;;;;;28.2;22.8;;;;;;;7.6;100.0;102510;;;;
2022/03/15 01:27:00;;;;;;;28.2;22.8;;;;;;;7.7;100.0;102510;;;;
2022/03/15 01:28:00;;;;;;;28.2;22.8;;;;;;;7.7;100.0;102510;;;;
2022/03/15 01:29:01;;;;;;;28.2;22.8;;;;;;;7.8;100.0;102510;;;;
2022/03/15 01:30:00;;;;;;;28.2;22.8;;;;;;;7.8;100.0;102510;;;;
2022/03/15 01:31:00;;;;;;;28.2;22.8;;;;;;;7.7;100.0;102510;;;;
2022/03/15 01:32:00;;;;;;;28.2;22.8;;;;;;;7.7;100.0;102510;;;;
2022/03/15 01:33:00;;;;;;;28.2;22.8;;;;;;;7.7;100.0;102510;;;;
2022/03/15 01:34:00;;;;;;;28.2;22.8;;;;;;;7.7;100.0;102510;;;;
2022/03/15 01:35:00;;;;;;;28.2;22.8;;;;;;;7.7;100.0;102510;;;;
2022/03/15 01:36:00;;;;;;;28.2;22.8;;;;;;;7.7;100.0;102510;;;;
2022/03/15 01:37:00;;;;;;;28.2;22.8;;;;;;;7.7;100.0;102510;;;;
2022/03/15 01:38:00;;;;;;;28.2;22.8;;;;;;;7.7;100.0;102510;;;;
2022/03/15 01:39:00;;;;;;;28.2;22.8;;;;;;;7.7;100.0;102510;;;;
2022/03/15 01:40:00;;;;;;;28.2;22.8;;;;;;;7.7;100.0;102510;;;;
2022/03/15 01:41:00;;;;;;;28.2;22.8;;;;;;;7.7;100.0;102500;;;;
2022/03/15 01:42:00;;;;;;;28.2;22.8;;;;;;;7.7;100.0;102500;;;;
2022/03/15 01:43:00;;;;;;;28.2;22.8;;;;;;;7.7;100.0;102500;;;;
2022/03/15 01:44:00;;;;;;;28.2;22.8;;;;;;;7.7;100.0;102500;;;;
2022/03/15 01:45:02;;;;;;;28.2;22.8;;;;;;;7.7;100.0;102490;;;;
2022/03/15 01:46:00;;;;;;;26.8;22.5;;;;;;;7.7;100.0;102490;;;;
2022/03/15 01:47:00;;;;;;;26.8;22.5;;;;;;;7.7;100.0;102490;;;;
2022/03/15 01:48:00;;;;;;;26.8;22.5;;;;;;;7.7;100.0;102490;;;;
2022/03/15 01:49:00;;;;;;;26.8;22.5;;;;;;;7.7;100.0;102490;;;;
2022/03/15 01:50:00;;;;;;;26.8;22.5;;;;;;;7.7;100.0;102490;;;;
2022/03/15 01:51:00;;;;;;;26.8;22.5;;;;;;;7.7;100.0;102490;;;;
2022/03/15 01:52:00;;;;;;;26.8;22.5;;;;;;;7.7;100.0;102490;;;;
2022/03/15 01:53:00;;;;;;;26.8;22.5;;;;;;;7.6;100.0;102490;;;;
2022/03/15 01:54:00;;;;;;;26.8;22.5;;;;;;;7.6;100.0;102490;;;;
2022/03/15 01:55:00;;;;;;;26.8;22.5;;;;;;;7.6;100.0;102490;;;;
2022/03/15 01:56:00;;;;;;;26.8;22.5;;;;;;;7.6;100.0;102490;;;;
2022/03/15 01:57:00;;;;;;;26.8;22.5;;;;;;;7.6;100.0;102480;;;;
2022/03/15 01:58:00;;;;;;;26.8;22.5;;;;;;;7.6;100.0;102480;;;;
2022/03/15 01:59:00;;;;;;;26.8;22.5;;;;;;;7.6;100.0;102480;;;;
2022/03/15 02:00:00;;;;;;;26.8;22.5;;;;;;;7.6;100.0;102480;;;;
2022/03/15 02:01:00;;;;;;;26.8;22.5;;;;;;;7.6;100.0;102480;;;;
2022/03/15 02:02:00;;;;;;;26.8;22.5;;;;;;;7.6;100.0;102480;;;;
2022/03/15 02:03:01;;;;;;;26.8;22.5;;;;;;;7.6;100.0;102470;;;;
2022/03/15 02:04:00;;;;;;;26.8;22.5;;;;;;;7.6;100.0;102470;;;;
2022/03/15 02:05:00;;;;;;;26.8;22.5;;;;;;;7.6;100.0;102470;;;;
2022/03/15 02:06:01;;;;;;;24.8;21.5;;;;;;;7.6;100.0;102470;;;;
2022/03/15 02:07:02;;;;;;;24.8;21.5;;;;;;;7.6;100.0;102470;;;;
2022/03/15 02:08:08;;;;;;;24.8;21.5;;;;;;;7.6;100.0;102470;;;;
2022/03/15 02:09:06;;;;;;;24.8;21.5;;;;;;;7.6;100.0;102470;;;;
2022/03/15 02:10:00;;;;;;;24.8;21.5;;;;;;;7.6;100.0;102470;;;;
2022/03/15 02:11:00;;;;;;;24.8;21.5;;;;;;;7.5;100.0;102470;;;;
2022/03/15 02:12:00;;;;;;;24.8;21.5;;;;;;;7.5;100.0;102470;;;;
2022/03/15 02:13:00;;;;;;;24.8;21.5;;;;;;;7.5;100.0;102470;;;;
2022/03/15 02:14:00;;;;;;;24.8;21.5;;;;;;;7.5;100.0;102470;;;;
2022/03/15 02:15:03;;;;;;;24.8;21.5;;;;;;;7.5;100.0;102470;;;;
2022/03/15 02:16:00;;;;;;;24.8;21.5;;;;;;;7.5;100.0;102470;;;;
2022/03/15 02:17:00;;;;;;;24.8;21.5;;;;;;;7.6;100.0;102480;;;;
2022/03/15 02:18:00;;;;;;;24.8;21.5;;;;;;;7.6;100.0;102480;;;;
2022/03/15 02:19:00;;;;;;;24.8;21.5;;;;;;;7.5;100.0;102470;;;;
2022/03/15 02:20:08;;;;;;;24.8;21.5;;;;;;;7.5;100.0;102470;;;;
2022/03/15 02:21:00;;;;;;;24.8;21.5;;;;;;;7.5;100.0;102470;;;;
2022/03/15 02:22:00;;;;;;;24.8;21.5;;;;;;;7.5;100.0;102470;;;;
2022/03/15 02:23:00;;;;;;;24.8;21.5;;;;;;;7.5;100.0;102470;;;;
2022/03/15 02:24:00;;;;;;;24.8;21.5;;;;;;;7.5;100.0;102470;;;;
2022/03/15 02:25:00;;;;;;;24.8;21.5;;;;;;;7.5;100.0;102470;;;;
2022/03/15 02:26:00;;;;;;;22.9;20.4;;;;;;;7.5;100.0;102470;;;;
2022/03/15 02:27:00;;;;;;;22.9;20.4;;;;;;;7.5;100.0;102470;;;;
2022/03/15 02:28:00;;;;;;;22.9;20.4;;;;;;;7.5;100.0;102470;;;;
2022/03/15 02:29:00;;;;;;;22.9;20.4;;;;;;;7.5;100.0;102460;;;;
2022/03/15 02:30:00;;;;;;;22.9;20.4;;;;;;;7.5;100.0;102460;;;;
2022/03/15 02:31:00;;;;;;;22.9;20.4;;;;;;;7.5;100.0;102460;;;;
2022/03/15 02:32:00;;;;;;;22.9;20.4;;;;;;;7.5;100.0;102460;;;;
2022/03/15 02:33:00;;;;;;;22.9;20.4;;;;;;;7.5;100.0;102460;;;;
2022/03/15 02:34:00;;;;;;;22.9;20.4;;;;;;;7.5;100.0;102460;;;;
2022/03/15 02:35:00;;;;;;;22.9;20.4;;;;;;;7.4;100.0;102450;;;;
2022/03/15 02:36:00;;;;;;;22.9;20.4;;;;;;;7.4;100.0;102450;;;;
2022/03/15 02:37:00;;;;;;;22.9;20.4;;;;;;;7.5;100.0;102450;;;;
2022/03/15 02:38:00;;;;;;;22.9;20.4;;;;;;;7.5;100.0;102450;;;;
2022/03/15 02:39:00;;;;;;;22.9;20.4;;;;;;;7.5;100.0;102450;;;;
2022/03/15 02:40:00;;;;;;;22.9;20.4;;;;;;;7.5;100.0;102450;;;;
2022/03/15 02:41:00;;;;;;;22.9;20.4;;;;;;;7.4;100.0;102450;;;;
2022/03/15 02:42:00;;;;;;;22.9;20.4;;;;;;;7.4;100.0;102450;;;;
2022/03/15 02:43:00;;;;;;;22.9;20.4;;;;;;;7.5;100.0;102450;;;;
2022/03/15 02:44:00;;;;;;;22.9;20.4;;;;;;;7.5;100.0;102450;;;;
2022/03/15 02:45:00;;;;;;;22.9;20.4;;;;;;;7.5;100.0;102440;;;;
2022/03/15 02:46:00;;;;;;;22.7;18.7;;;;;;;7.5;100.0;102440;;;;
2022/03/15 02:47:00;;;;;;;22.7;18.7;;;;;;;7.5;100.0;102430;;;;
2022/03/15 02:48:00;;;;;;;22.7;18.7;;;;;;;7.5;100.0;102430;;;;
2022/03/15 02:49:00;;;;;;;22.7;18.7;;;;;;;7.4;100.0;102440;;;;
2022/03/15 02:50:00;;;;;;;22.7;18.7;;;;;;;7.4;100.0;102440;;;;
2022/03/15 02:51:04;;;;;;;22.7;18.7;;;;;;;7.4;100.0;102430;;;;
2022/03/15 02:52:00;;;;;;;22.7;18.7;;;;;;;7.4;100.0;102430;;;;
2022/03/15 02:53:00;;;;;;;22.7;18.7;;;;;;;7.5;100.0;102430;;;;
2022/03/15 02:54:02;;;;;;;22.7;18.7;;;;;;;7.5;100.0;102430;;;;
2022/03/15 02:55:00;;;;;;;22.7;18.7;;;;;;;7.4;100.0;102430;;;;
2022/03/15 02:56:00;;;;;;;22.7;18.7;;;;;;;7.4;100.0;102430;;;;
2022/03/15 02:57:01;;;;;;;22.7;18.7;;;;;;;7.4;100.0;102430;;;;
2022/03/15 02:58:00;;;;;;;22.7;18.7;;;;;;;7.4;100.0;102430;;;;
2022/03/15 02:59:00;;;;;;;22.7;18.7;;;;;;;7.4;100.0;102430;;;;
2022/03/15 03:00:01;;;;;;;22.7;18.7;;;;;;;7.4;100.0;102430;;;;
2022/03/15 03:01:00;;;;;;;22.7;18.7;;;;;;;7.4;100.0;102420;;;;
2022/03/15 03:02:00;;;;;;;22.7;18.7;;;;;;;7.4;100.0;102420;;;;
2022/03/15 03:03:00;;;;;;;22.7;18.7;;;;;;;7.4;100.0;102420;;;;
2022/03/15 03:04:00;;;;;;;22.7;18.7;;;;;;;7.4;100.0;102420;;;;
2022/03/15 03:05:00;;;;;;;22.7;18.7;;;;;;;7.4;100.0;102420;;;;
2022/03/15 03:06:00;;;;;;;22.6;17.4;;;;;;;7.4;100.0;102420;;;;
2022/03/15 03:07:03;;;;;;;22.6;17.4;;;;;;;7.4;100.0;102420;;;;
2022/03/15 03:08:04;;;;;;;22.6;17.4;;;;;;;7.4;100.0;102420;;;;
2022/03/15 03:09:00;;;;;;;22.6;17.4;;;;;;;7.4;100.0;102420;;;;
2022/03/15 03:10:00;;;;;;;22.6;17.4;;;;;;;7.4;100.0;102420;;;;
2022/03/15 03:11:02;;;;;;;22.6;17.4;;;;;;;7.4;100.0;102420;;;;
2022/03/15 03:12:00;;;;;;;22.6;17.4;;;;;;;7.4;100.0;102420;;;;
2022/03/15 03:13:00;;;;;;;22.6;17.4;;;;;;;7.4;100.0;102430;;;;
2022/03/15 03:14:00;;;;;;;22.6;17.4;;;;;;;7.4;100.0;102430;;;;
2022/03/15 03:15:01;;;;;;;22.6;17.4;;;;;;;7.3;100.0;102420;;;;
2022/03/15 03:16:00;;;;;;;22.6;17.4;;;;;;;7.3;100.0;102420;;;;
2022/03/15 03:17:00;;;;;;;22.6;17.4;;;;;;;7.3;100.0;102410;;;;
2022/03/15 03:18:00;;;;;;;22.6;17.4;;;;;;;7.3;100.0;102410;;;;
2022/03/15 03:19:00;;;;;;;22.6;17.4;;;;;;;7.3;100.0;102410;;;;
2022/03/15 03:20:00;;;;;;;22.6;17.4;;;;;;;7.3;100.0;102410;;;;
2022/03/15 03:21:01;;;;;;;22.6;17.4;;;;;;;7.3;100.0;102400;;;;
2022/03/15 03:22:00;;;;;;;22.6;17.4;;;;;;;7.3;100.0;102400;;;;
2022/03/15 03:23:00;;;;;;;22.6;17.4;;;;;;;7.3;100.0;102400;;;;
2022/03/15 03:24:03;;;;;;;22.6;17.4;;;;;;;7.3;100.0;102400;;;;
2022/03/15 03:25:00;;;;;;;22.6;17.4;;;;;;;7.3;100.0;102400;;;;
2022/03/15 03:26:01;;;;;;;18.8;16.8;;;;;;;7.3;100.0;102400;;;;
2022/03/15 03:27:00;;;;;;;18.8;16.8;;;;;;;7.3;100.0;102400;;;;
2022/03/15 03:28:00;;;;;;;18.8;16.8;;;;;;;7.3;100.0;102400;;;;
2022/03/15 03:29:01;;;;;;;18.8;16.8;;;;;;;7.3;100.0;102400;;;;
2022/03/15 03:30:00;;;;;;;18.8;16.8;;;;;;;7.3;100.0;102400;;;;
2022/03/15 03:31:00;;;;;;;18.8;16.8;;;;;;;7.3;100.0;102400;;;;
2022/03/15 03:32:00;;;;;;;18.8;16.8;;;;;;;7.3;100.0;102400;;;;
2022/03/15 03:33:00;;;;;;;18.8;16.8;;;;;;;7.3;100.0;102400;;;;
2022/03/15 03:34:00;;;;;;;18.8;16.8;;;;;;;7.3;100.0;102400;;;;
2022/03/15 03:35:04;;;;;;;18.8;16.8;;;;;;;7.3;100.0;102400;;;;
2022/03/15 03:36:00;;;;;;;18.8;16.8;;;;;;;7.3;100.0;102400;;;;
2022/03/15 03:37:06;;;;;;;18.8;16.8;;;;;;;7.3;100.0;102400;;;;
2022/03/15 03:38:00;;;;;;;18.8;16.8;;;;;;;7.3;100.0;102400;;;;
2022/03/15 03:39:00;;;;;;;18.8;16.8;;;;;;;7.3;100.0;102390;;;;
2022/03/15 03:40:00;;;;;;;18.8;16.8;;;;;;;7.3;100.0;102390;;;;
2022/03/15 03:41:00;;;;;;;18.8;16.8;;;;;;;7.3;100.0;102400;;;;
2022/03/15 03:42:00;;;;;;;18.8;16.8;;;;;;;7.3;100.0;102400;;;;
2022/03/15 03:43:00;;;;;;;18.8;16.8;;;;;;;7.3;100.0;102400;;;;
2022/03/15 03:44:00;;;;;;;18.8;16.8;;;;;;;7.3;100.0;102400;;;;
2022/03/15 03:45:00;;;;;;;18.8;16.8;;;;;;;7.2;100.0;102400;;;;
2022/03/15 03:46:00;;;;;;;19.5;16.5;;;;;;;7.2;100.0;102400;;;;
2022/03/15 03:47:00;;;;;;;19.5;16.5;;;;;;;7.2;100.0;102390;;;;
2022/03/15 03:48:00;;;;;;;19.5;16.5;;;;;;;7.2;100.0;102390;;;;
2022/03/15 03:49:00;;;;;;;19.5;16.5;;;;;;;7.2;100.0;102390;;;;
2022/03/15 03:50:00;;;;;;;19.5;16.5;;;;;;;7.2;100.0;102390;;;;
2022/03/15 03:51:01;;;;;;;19.5;16.5;;;;;;;7.2;100.0;102390;;;;
2022/03/15 03:52:00;;;;;;;19.5;16.5;;;;;;;7.2;100.0;102390;;;;
2022/03/15 03:53:00;;;;;;;19.5;16.5;;;;;;;7.2;100.0;102390;;;;
2022/03/15 03:54:00;;;;;;;19.5;16.5;;;;;;;7.2;100.0;102390;;;;
2022/03/15 03:55:00;;;;;;;19.5;16.5;;;;;;;7.2;100.0;102390;;;;
2022/03/15 03:56:00;;;;;;;19.5;16.5;;;;;;;7.2;100.0;102390;;;;
2022/03/15 03:57:00;;;;;;;19.5;16.5;;;;;;;7.2;100.0;102390;;;;
2022/03/15 03:58:00;;;;;;;19.5;16.5;;;;;;;7.2;100.0;102390;;;;
2022/03/15 03:59:00;;;;;;;19.5;16.5;;;;;;;7.2;100.0;102390;;;;
2022/03/15 04:00:00;;;;;;;19.5;16.5;;;;;;;7.2;100.0;102390;;;;
2022/03/15 04:01:01;;;;;;;19.5;16.5;;;;;;;7.3;100.0;102390;;;;
2022/03/15 04:02:00;;;;;;;19.5;16.5;;;;;;;7.3;100.0;102390;;;;
2022/03/15 04:03:00;;;;;;;19.5;16.5;;;;;;;7.3;100.0;102390;;;;
2022/03/15 04:04:05;;;;;;;19.5;16.5;;;;;;;7.3;100.0;102390;;;;
2022/03/15 04:05:00;;;;;;;19.5;16.5;;;;;;;7.2;100.0;102390;;;;
2022/03/15 04:06:04;;;;;;;19.4;15.9;;;;;;;7.2;100.0;102390;;;;
2022/03/15 04:07:05;;;;;;;19.4;15.9;;;;;;;7.3;100.0;102390;;;;
2022/03/15 04:08:04;;;;;;;19.4;15.9;;;;;;;7.3;100.0;102390;;;;
2022/03/15 04:09:00;;;;;;;19.4;15.9;;;;;;;7.2;100.0;102390;;;;
2022/03/15 04:10:00;;;;;;;19.4;15.9;;;;;;;7.2;100.0;102390;;;;
2022/03/15 04:11:00;;;;;;;19.4;15.9;;;;;;;7.1;100.0;102390;;;;
2022/03/15 04:12:00;;;;;;;19.4;15.9;;;;;;;7.1;100.0;102390;;;;
2022/03/15 04:13:00;;;;;;;19.4;15.9;;;;;;;7.1;100.0;102390;;;;
2022/03/15 04:14:03;;;;;;;19.4;15.9;;;;;;;7.1;100.0;102390;;;;
2022/03/15 04:15:00;;;;;;;19.4;15.9;;;;;;;7.1;100.0;102390;;;;
2022/03/15 04:16:00;;;;;;;19.4;15.9;;;;;;;7.1;100.0;102390;;;;
2022/03/15 04:17:01;;;;;;;19.4;15.9;;;;;;;7.1;100.0;102390;;;;
2022/03/15 04:18:00;;;;;;;19.4;15.9;;;;;;;7.1;100.0;102390;;;;
2022/03/15 04:19:00;;;;;;;19.4;15.9;;;;;;;7.2;100.0;102390;;;;
2022/03/15 04:20:00;;;;;;;19.4;15.9;;;;;;;7.2;100.0;102390;;;;
2022/03/15 04:21:00;;;;;;;19.4;15.9;;;;;;;7.2;100.0;102390;;;;
2022/03/15 04:22:00;;;;;;;19.4;15.9;;;;;;;7.2;100.0;102390;;;;
2022/03/15 04:23:00;;;;;;;19.4;15.9;;;;;;;7.2;100.0;102390;;;;
2022/03/15 04:24:00;;;;;;;19.4;15.9;;;;;;;7.2;100.0;102390;;;;
2022/03/15 04:25:00;;;;;;;19.4;15.9;;;;;;;7.2;100.0;102390;;;;
2022/03/15 04:26:00;;;;;;;21.6;16.1;;;;;;;7.2;100.0;102390;;;;
2022/03/15 04:27:00;;;;;;;21.6;16.1;;;;;;;7.3;100.0;102390;;;;
2022/03/15 04:28:00;;;;;;;21.6;16.1;;;;;;;7.3;100.0;102390;;;;
2022/03/15 04:29:00;;;;;;;21.6;16.1;;;;;;;7.2;100.0;102390;;;;
2022/03/15 04:30:00;;;;;;;21.6;16.1;;;;;;;7.2;100.0;102390;;;;
2022/03/15 04:31:00;;;;;;;21.6;16.1;;;;;;;7.2;100.0;102390;;;;
2022/03/15 04:32:00;;;;;;;21.6;16.1;;;;;;;7.2;100.0;102390;;;;
2022/03/15 04:33:01;;;;;;;21.6;16.1;;;;;;;7.2;100.0;102390;;;;
2022/03/15 04:34:00;;;;;;;21.6;16.1;;;;;;;7.2;100.0;102390;;;;
2022/03/15 04:35:00;;;;;;;21.6;16.1;;;;;;;7.1;100.0;102390;;;;
2022/03/15 04:36:00;;;;;;;21.6;16.1;;;;;;;7.1;100.0;102390;;;;
2022/03/15 04:37:00;;;;;;;21.6;16.1;;;;;;;7.1;100.0;102400;;;;
2022/03/15 04:38:00;;;;;;;21.6;16.1;;;;;;;7.1;100.0;102400;;;;
2022/03/15 04:39:00;;;;;;;21.6;16.1;;;;;;;7.1;100.0;102390;;;;
2022/03/15 04:40:00;;;;;;;21.6;16.1;;;;;;;7.1;100.0;102390;;;;
2022/03/15 04:41:00;;;;;;;21.6;16.1;;;;;;;7.2;100.0;102390;;;;
2022/03/15 04:42:00;;;;;;;21.6;16.1;;;;;;;7.2;100.0;102390;;;;
2022/03/15 04:43:01;;;;;;;21.6;16.1;;;;;;;7.2;100.0;102380;;;;
2022/03/15 04:44:00;;;;;;;21.6;16.1;;;;;;;7.2;100.0;102380;;;;
2022/03/15 04:45:01;;;;;;;21.6;16.1;;;;;;;7.1;100.0;102380;;;;
2022/03/15 04:46:05;;;;;;;19.0;15.8;;;;;;;7.1;100.0;102380;;;;
2022/03/15 04:47:00;;;;;;;19.0;15.8;;;;;;;7.1;100.0;102380;;;;
2022/03/15 04:48:00;;;;;;;19.0;15.8;;;;;;;7.1;100.0;102380;;;;
2022/03/15 04:49:00;;;;;;;19.0;15.8;;;;;;;7.2;100.0;102380;;;;
2022/03/15 04:50:00;;;;;;;19.0;15.8;;;;;;;7.2;100.0;102380;;;;
2022/03/15 04:51:00;;;;;;;19.0;15.8;;;;;;;7.1;100.0;102380;;;;
2022/03/15 04:52:02;;;;;;;19.0;15.8;;;;;;;7.1;100.0;102380;;;;
2022/03/15 04:53:00;;;;;;;19.0;15.8;;;;;;;7.1;100.0;102380;;;;
2022/03/15 04:54:00;;;;;;;19.0;15.8;;;;;;;7.1;100.0;102380;;;;
2022/03/15 04:55:00;;;;;;;19.0;15.8;;;;;;;7.1;100.0;102380;;;;
2022/03/15 04:56:00;;;;;;;19.0;15.8;;;;;;;7.1;100.0;102380;;;;
2022/03/15 04:57:00;;;;;;;19.0;15.8;;;;;;;7.1;100.0;102380;;;;
2022/03/15 04:58:00;;;;;;;19.0;15.8;;;;;;;7.1;100.0;102380;;;;
2022/03/15 04:59:00;;;;;;;19.0;15.8;;;;;;;7.1;100.0;102380;;;;
2022/03/15 05:00:00;;;;;;;19.0;15.8;;;;;;;7.1;100.0;102380;;;;
2022/03/15 05:01:00;;;;;;;19.0;15.8;;;;;;;7.1;100.0;102380;;;;
2022/03/15 05:02:00;;;;;;;19.0;15.8;;;;;;;7.1;100.0;102380;;;;
2022/03/15 05:03:00;;;;;;;19.0;15.8;;;;;;;7.0;100.0;102370;;;;
2022/03/15 05:04:00;;;;;;;19.0;15.8;;;;;;;7.0;100.0;102370;;;;
2022/03/15 05:05:00;;;;;;;19.9;15.8;;;;;;;7.0;100.0;102370;;;;
2022/03/15 05:06:00;;;;;;;19.9;15.8;;;;;;;7.0;100.0;102370;;;;
2022/03/15 05:07:04;;;;;;;19.9;15.8;;;;;;;7.0;100.0;102370;;;;
2022/03/15 05:08:00;;;;;;;19.9;15.8;;;;;;;7.0;100.0;102370;;;;
2022/03/15 05:09:00;;;;;;;19.9;15.8;;;;;;;7.1;100.0;102370;;;;
2022/03/15 05:11:07;;;;;;;19.9;15.8;;;;;;;7.0;100.0;102370;;;;
2022/03/15 05:12:00;;;;;;;19.9;15.8;;;;;;;7.0;100.0;102370;;;;
2022/03/15 05:13:01;;;;;;;19.9;15.8;;;;;;;7.0;100.0;102370;;;;
2022/03/15 05:14:00;;;;;;;19.9;15.8;;;;;;;7.0;100.0;102370;;;;
2022/03/15 05:15:00;;;;;;;19.9;15.8;;;;;;;7.0;100.0;102380;;;;
2022/03/15 05:16:00;;;;;;;19.9;15.8;;;;;;;7.0;100.0;102380;;;;
2022/03/15 05:17:00;;;;;;;19.9;15.8;;;;;;;7.0;100.0;102360;;;;
2022/03/15 05:18:01;;;;;;;19.9;15.8;;;;;;;7.0;100.0;102360;;;;
2022/03/15 05:19:00;;;;;;;19.9;15.8;;;;;;;7.0;100.0;102370;;;;
2022/03/15 05:20:01;;;;;;;19.9;15.8;;;;;;;7.0;100.0;102370;;;;
2022/03/15 05:21:00;;;;;;;19.9;15.8;;;;;;;6.9;100.0;102370;;;;
2022/03/15 05:22:00;;;;;;;19.9;15.8;;;;;;;6.9;100.0;102370;;;;
2022/03/15 05:23:05;;;;;;;19.9;15.8;;;;;;;7.0;100.0;102370;;;;
2022/03/15 05:24:00;;;;;;;19.9;15.8;;;;;;;7.0;100.0;102370;;;;
2022/03/15 05:25:00;;;;;;;17.9;16.0;;;;;;;6.9;100.0;102370;;;;
2022/03/15 05:26:00;;;;;;;17.9;16.0;;;;;;;6.9;100.0;102370;;;;
2022/03/15 05:27:00;;;;;;;17.9;16.0;;;;;;;6.9;100.0;102370;;;;
2022/03/15 05:28:00;;;;;;;17.9;16.0;;;;;;;6.9;100.0;102370;;;;
2022/03/15 05:29:00;;;;;;;17.9;16.0;;;;;;;7.0;100.0;102370;;;;
2022/03/15 05:30:00;;;;;;;17.9;16.0;;;;;;;7.0;100.0;102370;;;;
2022/03/15 05:31:00;;;;;;;17.9;16.0;;;;;;;6.9;100.0;102370;;;;
2022/03/15 05:32:00;;;;;;;17.9;16.0;;;;;;;6.9;100.0;102370;;;;
2022/03/15 05:33:00;;;;;;;17.9;16.0;;;;;;;6.8;100.0;102370;;;;
2022/03/15 05:34:00;;;;;;;17.9;16.0;;;;;;;6.8;100.0;102370;;;;
2022/03/15 05:35:01;;;;;;;17.9;16.0;;;;;;;6.8;100.0;102360;;;;
2022/03/15 05:36:00;;;;;;;17.9;16.0;;;;;;;6.8;100.0;102360;;;;
2022/03/15 05:37:00;;;;;;;17.9;16.0;;;;;;;6.8;100.0;102370;;;;
2022/03/15 05:38:00;;;;;;;17.9;16.0;;;;;;;6.8;100.0;102370;;;;
2022/03/15 05:39:00;;;;;;;17.9;16.0;;;;;;;6.9;100.0;102370;;;;
2022/03/15 05:40:00;;;;;;;17.9;16.0;;;;;;;6.9;100.0;102370;;;;
2022/03/15 05:41:10;;;;;;;17.9;16.0;;;;;;;6.9;100.0;102360;;;;
2022/03/15 05:42:00;;;;;;;17.9;16.0;;;;;;;6.9;100.0;102360;;;;
2022/03/15 05:43:00;;;;;;;17.9;16.0;;;;;;;6.9;100.0;102360;;;;
2022/03/15 05:44:00;;;;;;;17.9;16.0;;;;;;;6.9;100.0;102360;;;;
2022/03/15 05:45:00;;;;;;;18.1;16.1;;;;;;;6.7;100.0;102360;;;;
2022/03/15 05:46:00;;;;;;;18.1;16.1;;;;;;;6.7;100.0;102360;;;;
2022/03/15 05:47:00;;;;;;;18.1;16.1;;;;;;;6.8;100.0;102360;;;;
2022/03/15 05:48:00;;;;;;;18.1;16.1;;;;;;;6.8;100.0;102360;;;;
2022/03/15 05:49:01;;;;;;;18.1;16.1;;;;;;;6.8;100.0;102360;;;;
2022/03/15 05:50:00;;;;;;;18.1;16.1;;;;;;;6.8;100.0;102360;;;;
2022/03/15 05:51:00;;;;;;;18.1;16.1;;;;;;;6.8;100.0;102360;;;;
2022/03/15 05:52:00;;;;;;;18.1;16.1;;;;;;;6.8;100.0;102360;;;;
2022/03/15 05:53:07;;;;;;;18.1;16.1;;;;;;;6.8;100.0;102360;;;;
2022/03/15 05:54:00;;;;;;;18.1;16.1;;;;;;;6.8;100.0;102360;;;;
2022/03/15 05:55:00;;;;;;;18.1;16.1;;;;;;;6.7;100.0;102350;;;;
2022/03/15 05:56:00;;;;;;;18.1;16.1;;;;;;;6.7;100.0;102350;;;;
2022/03/15 05:57:00;;;;;;;18.1;16.1;;;;;;;6.8;100.0;102350;;;;
2022/03/15 05:58:00;;;;;;;18.1;16.1;;;;;;;6.8;100.0;102350;;;;
2022/03/15 05:59:00;;;;;;;18.1;16.1;;;;;;;6.7;100.0;102350;;;;
2022/03/15 06:00:00;;;;;;;18.1;16.1;;;;;;;6.7;100.0;102350;;;;
2022/03/15 06:01:00;;;;;;;18.1;16.1;;;;;;;6.7;100.0;102350;;;;
2022/03/15 06:02:00;;;;;;;18.1;16.1;;;;;;;6.7;100.0;102350;;;;
2022/03/15 06:03:00;;;;;;;18.1;16.1;;;;;;;6.7;100.0;102350;;;;
2022/03/15 06:04:00;;;;;;;18.1;16.1;;;;;;;6.7;100.0;102350;;;;
2022/03/15 06:05:01;;;;;;;20.2;15.3;;;;;;;6.8;100.0;102340;;;;
2022/03/15 06:06:00;;;;;;;20.2;15.3;;;;;;;6.8;100.0;102340;;;;
2022/03/15 06:07:01;;;;;;;20.2;15.3;;;;;;;6.7;100.0;102340;;;;
2022/03/15 06:08:00;;;;;;;20.2;15.3;;;;;;;6.7;100.0;102340;;;;
2022/03/15 06:09:00;;;;;;;20.2;15.3;;;;;;;6.7;100.0;102340;;;;
2022/03/15 06:10:00;;;;;;;20.2;15.3;;;;;;;6.7;100.0;102340;;;;
2022/03/15 06:11:02;;;;;;;20.2;15.3;;;;;;;6.9;100.0;102340;;;;
2022/03/15 06:12:00;;;;;;;20.2;15.3;;;;;;;6.9;100.0;102340;;;;
2022/03/15 06:13:00;;;;;;;20.2;15.3;;;;;;;6.8;100.0;102340;;;;
2022/03/15 06:14:00;;;;;;;20.2;15.3;;;;;;;6.8;100.0;102340;;;;
2022/03/15 06:15:00;;;;;;;20.2;15.3;;;;;;;6.8;100.0;102350;;;;
2022/03/15 06:16:01;;;;;;;20.2;15.3;;;;;;;6.8;100.0;102350;;;;
2022/03/15 06:17:00;;;;;;;20.2;15.3;;;;;;;6.8;100.0;102340;;;;